createdAt,value
2022-08-03T00:02:17.114Z,97569.84
2022-08-03T00:04:44.014Z,97564.88
2022-08-03T00:07:10.582Z,97567.81
2022-08-03T00:09:37.244Z,97564.00
2022-08-03T00:12:04.208Z,97565.16
2022-08-03T00:14:30.810Z,97563.09
2022-08-03T00:16:58.972Z,97559.00
2022-08-03T00:19:25.578Z,97565.50
2022-08-03T00:21:52.133Z,97564.13
2022-08-03T00:24:18.755Z,97560.75
2022-08-03T00:26:45.559Z,97560.28
2022-08-03T00:29:12.873Z,97561.00
2022-08-03T00:31:40.012Z,97559.00
2022-08-03T00:34:29.847Z,97549.81
2022-08-03T00:37:06.836Z,97555.50
2022-08-03T00:39:33.417Z,97541.41
2022-08-03T00:42:02.339Z,97545.41
2022-08-03T00:44:28.980Z,97545.41
2022-08-03T00:46:55.557Z,97546.34
2022-08-03T00:49:23.644Z,97549.84
2022-08-03T00:51:50.790Z,97547.84
2022-08-03T00:54:17.866Z,97549.47
2022-08-03T00:56:59.435Z,97542.69
2022-08-03T00:59:27.430Z,97551.00
2022-08-03T01:01:54.090Z,97546.81
2022-08-03T01:04:20.645Z,97548.44
2022-08-03T01:06:52.559Z,97551.72
2022-08-03T01:09:26.949Z,97552.66
2022-08-03T01:12:01.841Z,97553.69
2022-08-03T01:14:36.307Z,97548.94
2022-08-03T01:17:14.873Z,97558.59
2022-08-03T01:19:46.556Z,97552.41
2022-08-03T01:22:23.260Z,97553.59
2022-08-03T01:25:00.413Z,97551.97
2022-08-03T01:27:37.191Z,97549.28
2022-08-03T01:30:08.316Z,97554.88
2022-08-03T01:33:02.687Z,97554.06
2022-08-03T01:35:33.160Z,97559.72
2022-08-03T01:38:10.014Z,97554.94
2022-08-03T01:40:39.445Z,97558.88
2022-08-03T01:43:07.931Z,97549.09
2022-08-03T01:45:37.294Z,97549.22
2022-08-03T01:48:06.687Z,97555.31
2022-08-03T01:50:34.289Z,97555.13
2022-08-03T01:53:02.386Z,97564.69
2022-08-03T01:55:31.311Z,97561.25
2022-08-03T01:58:05.720Z,97563.66
2022-08-03T02:00:35.383Z,97558.44
2022-08-03T02:03:06.071Z,97562.16
2022-08-03T02:05:33.940Z,97560.16
2022-08-03T02:08:01.849Z,97554.59
2022-08-03T02:10:34.698Z,97550.44
2022-08-03T02:13:05.118Z,97556.84
2022-08-03T02:15:33.684Z,97552.19
2022-08-03T02:18:04.972Z,97553.31
2022-08-03T02:20:33.588Z,97550.63
2022-08-03T02:23:00.226Z,97548.63
2022-08-03T02:25:27.359Z,97544.56
2022-08-03T02:27:57.853Z,97548.75
2022-08-03T02:30:30.876Z,97546.34
2022-08-03T02:32:59.158Z,97550.44
2022-08-03T02:35:30.527Z,97550.31
2022-08-03T02:38:01.077Z,97546.91
2022-08-03T02:40:29.262Z,97550.38
2022-08-03T02:42:59.404Z,97542.94
2022-08-03T02:45:28.762Z,97536.81
2022-08-03T02:47:58.425Z,97545.84
2022-08-03T02:50:28.549Z,97549.06
2022-08-03T02:52:57.206Z,97556.28
2022-08-03T02:55:26.095Z,97546.06
2022-08-03T02:57:54.210Z,97550.00
2022-08-03T03:00:28.090Z,97555.47
2022-08-03T03:02:57.466Z,97555.56
2022-08-03T03:05:52.135Z,97549.50
2022-08-03T03:08:18.013Z,97552.28
2022-08-03T03:10:46.457Z,97548.34
2022-08-03T03:13:15.984Z,97548.13
2022-08-03T03:15:45.065Z,97557.53
2022-08-03T03:18:12.606Z,97552.34
2022-08-03T03:20:39.681Z,97558.38
2022-08-03T03:23:26.706Z,97554.50
2022-08-03T03:25:54.331Z,97558.97
2022-08-03T03:28:21.051Z,97552.09
2022-08-03T03:30:53.111Z,97565.44
2022-08-03T03:33:20.065Z,97560.63
2022-08-03T03:35:47.308Z,97566.19
2022-08-03T03:38:14.076Z,97560.81
2022-08-03T03:40:42.427Z,97564.91
2022-08-03T03:43:10.235Z,97568.75
2022-08-03T03:45:37.698Z,97565.38
2022-08-03T03:48:05.443Z,97565.22
2022-08-03T03:50:33.832Z,97565.09
2022-08-03T03:53:01.292Z,97574.16
2022-08-03T03:55:27.834Z,97569.31
2022-08-03T03:57:56.363Z,97568.75
2022-08-03T04:00:23.403Z,97570.75
2022-08-03T04:02:49.959Z,97569.94
2022-08-03T04:05:16.539Z,97576.66
2022-08-03T04:07:50.786Z,97585.25
2022-08-03T04:10:22.350Z,97585.16
2022-08-03T04:12:50.912Z,97584.47
2022-08-03T04:15:22.462Z,97591.22
2022-08-03T04:17:51.063Z,97585.16
2022-08-03T04:20:21.203Z,97580.56
2022-08-03T04:22:49.632Z,97590.03
2022-08-03T04:25:18.491Z,97583.66
2022-08-03T04:28:07.643Z,97585.44
2022-08-03T04:30:38.639Z,97589.53
2022-08-03T04:33:06.348Z,97593.56
2022-08-03T04:35:58.440Z,97590.50
2022-08-03T04:38:23.499Z,97587.88
2022-08-03T04:40:50.700Z,97590.19
2022-08-03T04:43:18.850Z,97592.16
2022-08-03T04:45:47.944Z,97585.28
2022-08-03T04:48:15.391Z,97598.22
2022-08-03T04:50:42.305Z,97604.28
2022-08-03T04:53:09.896Z,97608.81
2022-08-03T04:55:36.522Z,97604.09
2022-08-03T04:58:04.513Z,97611.97
2022-08-03T05:00:31.190Z,97608.81
2022-08-03T05:02:59.165Z,97605.31
2022-08-03T05:05:25.798Z,97612.22
2022-08-03T05:08:05.016Z,97617.06
2022-08-03T05:10:37.716Z,97622.44
2022-08-03T05:13:04.281Z,97617.28
2022-08-03T05:15:30.854Z,97608.09
2022-08-03T05:17:58.727Z,97618.66
2022-08-03T05:20:26.001Z,97615.72
2022-08-03T05:22:52.527Z,97612.75
2022-08-03T05:25:19.941Z,97610.81
2022-08-03T05:27:48.847Z,97611.56
2022-08-03T05:30:32.315Z,97611.03
2022-08-03T05:33:02.839Z,97606.34
2022-08-03T05:35:57.956Z,97611.94
2022-08-03T05:38:23.876Z,97612.63
2022-08-03T05:40:57.488Z,97608.47
2022-08-03T05:43:42.835Z,97611.97
2022-08-03T05:46:12.132Z,97607.94
2022-08-03T05:48:41.542Z,97611.25
2022-08-03T05:51:08.095Z,97608.78
2022-08-03T05:53:34.694Z,97606.56
2022-08-03T05:56:13.298Z,97607.81
2022-08-03T05:58:41.656Z,97604.22
2022-08-03T06:01:08.271Z,97603.63
2022-08-03T06:03:34.843Z,97606.75
2022-08-03T06:06:02.774Z,97607.84
2022-08-03T06:08:29.306Z,97603.16
2022-08-03T06:10:55.841Z,97606.31
2022-08-03T06:13:22.380Z,97609.34
2022-08-03T06:15:48.932Z,97616.84
2022-08-03T06:18:15.447Z,97603.81
2022-08-03T06:20:42.000Z,97605.06
2022-08-03T06:23:16.146Z,97607.56
2022-08-03T06:25:44.515Z,97606.72
2022-08-03T06:28:19.024Z,97597.88
2022-08-03T06:30:50.303Z,97599.41
2022-08-03T06:33:17.039Z,97612.50
2022-08-03T06:35:44.702Z,97606.19
2022-08-03T06:38:13.204Z,97610.88
2022-08-03T06:40:39.747Z,97607.38
2022-08-03T06:43:10.726Z,97606.00
2022-08-03T06:45:39.499Z,97602.03
2022-08-03T06:48:07.904Z,97604.13
2022-08-03T06:50:36.192Z,97602.94
2022-08-03T06:53:03.408Z,97607.47
2022-08-03T06:55:32.300Z,97602.63
2022-08-03T06:57:59.845Z,97601.41
2022-08-03T07:00:29.935Z,97603.50
2022-08-03T07:02:58.470Z,97609.41
2022-08-03T07:05:25.397Z,97614.09
2022-08-03T07:07:55.127Z,97606.66
2022-08-03T07:10:21.705Z,97607.47
2022-08-03T07:12:55.883Z,97607.84
2022-08-03T07:15:53.864Z,97605.81
2022-08-03T07:18:10.977Z,97601.72
2022-08-03T07:20:37.649Z,97603.81
2022-08-03T07:23:04.241Z,97599.38
2022-08-03T07:25:30.819Z,97593.66
2022-08-03T07:27:58.682Z,97598.50
2022-08-03T07:30:25.237Z,97600.94
2022-08-03T07:32:51.751Z,97600.56
2022-08-03T07:35:24.934Z,97600.47
2022-08-03T07:37:54.213Z,97597.66
2022-08-03T07:40:22.312Z,97611.38
2022-08-03T07:42:53.315Z,97600.13
2022-08-03T07:45:21.461Z,97594.31
2022-08-03T07:47:53.202Z,97597.94
2022-08-03T07:50:20.877Z,97597.47
2022-08-03T07:52:47.538Z,97597.09
2022-08-03T07:55:14.314Z,97592.31
2022-08-03T07:57:40.951Z,97591.94
2022-08-03T08:00:13.137Z,97602.50
2022-08-03T08:02:41.164Z,97596.41
2022-08-03T08:05:08.826Z,97595.16
2022-08-03T08:07:35.405Z,97596.72
2022-08-03T08:10:01.962Z,97593.44
2022-08-03T08:12:28.630Z,97591.47
2022-08-03T08:14:55.146Z,97585.94
2022-08-03T08:17:21.722Z,97584.06
2022-08-03T08:19:51.647Z,97594.97
2022-08-03T08:22:29.766Z,97594.06
2022-08-03T08:24:57.555Z,97589.19
2022-08-03T08:27:24.107Z,97593.75
2022-08-03T08:29:54.195Z,97589.78
2022-08-03T08:32:23.373Z,97592.81
2022-08-03T08:34:51.266Z,97595.13
2022-08-03T08:37:17.891Z,97577.22
2022-08-03T08:39:44.420Z,97589.72
2022-08-03T08:42:11.020Z,97577.63
2022-08-03T08:44:37.550Z,97577.56
2022-08-03T08:47:04.290Z,97580.47
2022-08-03T08:49:32.569Z,97581.19
2022-08-03T08:52:01.614Z,97585.13
2022-08-03T08:54:31.341Z,97575.03
2022-08-03T08:57:02.356Z,97579.38
2022-08-03T08:59:48.760Z,97574.78
2022-08-03T09:02:16.567Z,97578.75
2022-08-03T09:04:43.923Z,97580.13
2022-08-03T09:07:20.027Z,97574.69
2022-08-03T09:10:10.598Z,97581.28
2022-08-03T09:12:41.899Z,97571.19
2022-08-03T09:15:20.343Z,97570.84
2022-08-03T09:17:50.820Z,97575.22
2022-08-03T09:20:18.501Z,97572.84
2022-08-03T09:23:19.074Z,97568.16
2022-08-03T09:25:59.900Z,97570.25
2022-08-03T09:29:00.860Z,97573.50
2022-08-03T09:31:20.713Z,97566.22
2022-08-03T09:33:48.268Z,97565.75
2022-08-03T09:36:39.771Z,97564.81
2022-08-03T09:39:08.827Z,97565.75
2022-08-03T09:41:35.441Z,97562.88
2022-08-03T09:44:01.992Z,97566.09
2022-08-03T09:46:28.578Z,97559.50
2022-08-03T09:49:11.911Z,97555.41
2022-08-03T09:52:32.647Z,97554.66
2022-08-03T09:54:28.218Z,97557.56
2022-08-03T09:56:55.379Z,97572.56
2022-08-03T09:59:26.160Z,97561.50
2022-08-03T10:01:53.184Z,97551.31
2022-08-03T10:04:20.269Z,97555.28
2022-08-03T10:07:02.266Z,97544.94
2022-08-03T10:09:30.194Z,97546.19
2022-08-03T10:11:57.543Z,97546.97
2022-08-03T10:14:24.494Z,97548.09
2022-08-03T10:16:51.087Z,97544.09
2022-08-03T10:19:17.687Z,97540.28
2022-08-03T10:21:49.619Z,97536.09
2022-08-03T10:24:20.091Z,97536.34
2022-08-03T10:26:50.290Z,97526.25
2022-08-03T10:29:21.896Z,97529.09
2022-08-03T10:31:57.328Z,97530.97
2022-08-03T10:34:26.961Z,97522.09
2022-08-03T10:36:58.269Z,97524.25
2022-08-03T10:39:27.443Z,97518.22
2022-08-03T10:41:56.612Z,97525.41
2022-08-03T10:44:26.047Z,97527.81
2022-08-03T10:46:53.369Z,97517.53
2022-08-03T10:49:33.711Z,97514.28
2022-08-03T10:52:09.678Z,97521.88
2022-08-03T10:54:41.837Z,97518.56
2022-08-03T10:57:42.720Z,97515.63
2022-08-03T11:00:10.493Z,97523.50
2022-08-03T11:03:06.541Z,97506.19
2022-08-03T11:05:35.387Z,97513.25
2022-08-03T11:08:23.139Z,97502.25
2022-08-03T11:10:51.334Z,97493.91
2022-08-03T11:13:21.256Z,97493.50
2022-08-03T11:15:49.971Z,97503.47
2022-08-03T11:18:17.120Z,97509.88
2022-08-03T11:20:45.981Z,97506.25
2022-08-03T11:23:13.285Z,97501.22
2022-08-03T11:26:15.051Z,97495.28
2022-08-03T11:28:45.058Z,97496.31
2022-08-03T11:31:51.880Z,97493.91
2022-08-03T11:34:18.759Z,97494.16
2022-08-03T11:37:20.891Z,97484.81
2022-08-03T11:39:50.429Z,97491.31
2022-08-03T11:42:39.302Z,97489.97
2022-08-03T11:45:09.127Z,97488.75
2022-08-03T11:47:50.229Z,97474.47
2022-08-03T11:50:18.531Z,97490.13
2022-08-03T11:52:45.166Z,97493.19
2022-08-03T11:55:14.431Z,97489.81
2022-08-03T11:59:01.191Z,97487.91
2022-08-03T12:00:30.978Z,97479.13
2022-08-03T12:02:59.671Z,97483.91
2022-08-03T12:05:37.264Z,97483.25
2022-08-03T12:08:06.885Z,97484.34
2022-08-03T12:10:34.167Z,97474.25
2022-08-03T12:13:02.486Z,97473.28
2022-08-03T12:15:32.559Z,97472.31
2022-08-03T12:17:59.801Z,97467.84
2022-08-03T12:20:35.294Z,97464.28
2022-08-03T12:23:03.631Z,97464.47
2022-08-03T12:25:39.455Z,97465.50
2022-08-03T12:28:36.990Z,97456.56
2022-08-03T12:31:02.585Z,97461.06
2022-08-03T12:33:29.199Z,97455.72
2022-08-03T12:36:05.377Z,97453.84
2022-08-03T12:38:32.390Z,97445.72
2022-08-03T12:41:06.535Z,97452.06
2022-08-03T12:43:36.565Z,97449.50
2022-08-03T12:46:14.828Z,97448.06
2022-08-03T12:49:05.436Z,97445.47
2022-08-03T12:51:33.812Z,97447.44
2022-08-03T12:54:00.803Z,97442.72
2022-08-03T12:56:27.418Z,97445.03
2022-08-03T12:58:54.039Z,97440.13
2022-08-03T13:01:22.053Z,97438.25
2022-08-03T13:03:52.697Z,97431.31
2022-08-03T13:06:21.594Z,97428.44
2022-08-03T13:08:48.288Z,97430.06
2022-08-03T13:11:19.347Z,97434.88
2022-08-03T13:13:45.958Z,97433.25
2022-08-03T13:16:17.194Z,97434.09
2022-08-03T13:18:47.140Z,97431.47
2022-08-03T13:21:15.239Z,97431.28
2022-08-03T13:23:42.349Z,97423.78
2022-08-03T13:26:08.982Z,97418.69
2022-08-03T13:28:35.533Z,97426.44
2022-08-03T13:31:04.028Z,97425.94
2022-08-03T13:33:33.750Z,97417.88
2022-08-03T13:36:01.614Z,97411.25
2022-08-03T13:38:28.162Z,97421.38
2022-08-03T13:40:55.133Z,97420.13
2022-08-03T13:43:22.516Z,97420.38
2022-08-03T13:45:53.576Z,97415.56
2022-08-03T13:48:36.236Z,97413.75
2022-08-03T13:51:22.274Z,97406.34
2022-08-03T13:53:49.950Z,97411.97
2022-08-03T13:56:16.467Z,97412.69
2022-08-03T13:58:43.081Z,97411.78
2022-08-03T14:01:09.676Z,97408.56
2022-08-03T14:03:36.211Z,97409.25
2022-08-03T14:06:02.760Z,97401.13
2022-08-03T14:08:30.754Z,97391.09
2022-08-03T14:10:58.167Z,97386.19
2022-08-03T14:13:24.703Z,97388.16
2022-08-03T14:15:51.497Z,97390.63
2022-08-03T14:18:27.609Z,97386.41
2022-08-03T14:20:59.638Z,97397.06
2022-08-03T14:23:29.992Z,97396.94
2022-08-03T14:25:56.536Z,97394.81
2022-08-03T14:28:23.920Z,97385.53
2022-08-03T14:30:52.098Z,97383.31
2022-08-03T14:33:19.002Z,97382.41
2022-08-03T14:35:45.596Z,97381.69
2022-08-03T14:38:12.164Z,97386.28
2022-08-03T14:40:40.110Z,97387.56
2022-08-03T14:43:06.731Z,97384.34
2022-08-03T14:45:33.279Z,97383.56
2022-08-03T14:50:31.789Z,97382.97
2022-08-03T14:50:51.024Z,97378.84
2022-08-03T14:53:18.493Z,97378.63
2022-08-03T14:55:49.631Z,97376.75
2022-08-03T14:58:19.578Z,97372.03
2022-08-03T15:00:49.327Z,97361.03
2022-08-03T15:03:16.975Z,97361.94
2022-08-03T15:05:43.916Z,97364.94
2022-08-03T15:08:10.427Z,97365.72
2022-08-03T15:10:40.373Z,97360.13
2022-08-03T15:13:12.884Z,97357.00
2022-08-03T15:15:39.625Z,97361.94
2022-08-03T15:18:06.204Z,97352.44
2022-08-03T15:20:43.892Z,97352.00
2022-08-03T15:23:11.335Z,97344.19
2022-08-03T15:26:29.208Z,97352.41
2022-08-03T15:28:25.748Z,97349.22
2022-08-03T15:30:53.696Z,97346.13
2022-08-03T15:33:20.342Z,97351.28
2022-08-03T15:35:47.019Z,97349.69
2022-08-03T15:38:13.634Z,97337.69
2022-08-03T15:40:40.244Z,97337.34
2022-08-03T15:43:07.084Z,97334.81
2022-08-03T15:45:36.093Z,97342.50
2022-08-03T15:48:03.883Z,97345.00
2022-08-03T15:50:30.554Z,97334.59
2022-08-03T15:52:57.131Z,97341.91
2022-08-03T15:55:23.803Z,97340.88
2022-08-03T15:59:04.099Z,97332.72
2022-08-03T16:00:39.046Z,97329.44
2022-08-03T16:03:05.834Z,97334.91
2022-08-03T16:05:32.452Z,97328.03
2022-08-03T16:08:03.914Z,97318.41
2022-08-03T16:10:31.930Z,97326.75
2022-08-03T16:12:58.818Z,97324.81
2022-08-03T16:15:25.697Z,97332.38
2022-08-03T16:17:53.571Z,97330.41
2022-08-03T16:20:29.710Z,97331.81
2022-08-03T16:23:01.496Z,97320.31
2022-08-03T16:25:34.990Z,97321.50
2022-08-03T16:28:08.122Z,97327.03
2022-08-03T16:30:40.268Z,97324.34
2022-08-03T16:33:08.331Z,97327.56
2022-08-03T16:35:35.071Z,97328.69
2022-08-03T16:38:05.373Z,97315.63
2022-08-03T16:40:35.006Z,97318.50
2022-08-03T16:43:01.624Z,97314.25
2022-08-03T16:45:28.195Z,97324.56
2022-08-03T16:48:05.602Z,97329.53
2022-08-03T16:50:34.781Z,97322.75
2022-08-03T16:53:01.366Z,97312.22
2022-08-03T16:55:51.666Z,97318.31
2022-08-03T16:58:15.937Z,97321.06
2022-08-03T17:00:43.932Z,97336.31
2022-08-03T17:03:20.579Z,97325.38
2022-08-03T17:05:52.415Z,97321.00
2022-08-03T17:08:26.507Z,97323.72
2022-08-03T17:10:54.642Z,97328.53
2022-08-03T17:13:21.743Z,97320.84
2022-08-03T17:15:57.949Z,97326.81
2022-08-03T17:18:26.639Z,97326.00
2022-08-03T17:20:56.220Z,97329.28
2022-08-03T17:23:36.543Z,97329.25
2022-08-03T17:26:07.480Z,97322.09
2022-08-03T17:28:51.991Z,97333.09
2022-08-03T17:31:31.771Z,97345.03
2022-08-03T17:34:00.695Z,97335.03
2022-08-03T17:36:54.006Z,97334.94
2022-08-03T17:39:17.246Z,97335.34
2022-08-03T17:41:49.866Z,97340.72
2022-08-03T17:44:31.179Z,97341.00
2022-08-03T17:47:04.766Z,97338.19
2022-08-03T17:49:33.241Z,97339.00
2022-08-03T17:52:17.377Z,97332.44
2022-08-03T17:55:55.731Z,97339.25
2022-08-03T17:58:03.084Z,97342.03
2022-08-03T18:00:29.460Z,97344.94
2022-08-03T18:03:08.221Z,97340.31
2022-08-03T18:06:10.367Z,97353.53
2022-08-03T18:08:27.276Z,97348.47
2022-08-03T18:11:03.348Z,97347.06
2022-08-03T18:13:40.474Z,97351.84
2022-08-03T18:16:11.364Z,97348.63
2022-08-03T18:18:43.237Z,97353.81
2022-08-03T18:21:16.905Z,97354.53
2022-08-03T18:23:50.358Z,97353.75
2022-08-03T18:26:18.332Z,97353.00
2022-08-03T18:28:46.314Z,97351.66
2022-08-03T18:32:00.015Z,97363.53
2022-08-03T18:34:19.021Z,97362.09
2022-08-03T18:36:50.231Z,97366.66
2022-08-03T18:39:18.687Z,97354.16
2022-08-03T18:41:46.777Z,97363.56
2022-08-03T18:44:46.511Z,97370.88
2022-08-03T18:47:28.092Z,97367.66
2022-08-03T18:50:19.002Z,97362.78
2022-08-03T18:52:52.924Z,97372.09
2022-08-03T18:56:01.507Z,97364.41
2022-08-03T18:58:34.896Z,97369.66
2022-08-03T19:01:56.422Z,97368.88
2022-08-03T19:04:07.368Z,97371.59
2022-08-03T19:06:39.337Z,97369.13
2022-08-03T19:09:07.295Z,97376.00
2022-08-03T19:12:12.335Z,97373.09
2022-08-03T19:14:35.235Z,97375.06
2022-08-03T19:17:09.233Z,97370.97
2022-08-03T19:19:43.423Z,97380.53
2022-08-03T19:22:12.766Z,97375.69
2022-08-03T19:24:45.693Z,97384.50
2022-08-03T19:27:14.164Z,97384.44
2022-08-03T19:29:58.161Z,97386.44
2022-08-03T19:32:27.733Z,97389.97
2022-08-03T19:34:54.958Z,97385.81
2022-08-03T19:37:22.528Z,97380.97
2022-08-03T19:39:56.661Z,97390.94
2022-08-03T19:42:30.156Z,97390.50
2022-08-03T19:45:11.016Z,97384.41
2022-08-03T19:47:45.541Z,97386.41
2022-08-03T19:50:14.313Z,97382.72
2022-08-03T19:52:44.034Z,97381.69
2022-08-03T19:55:12.209Z,97380.81
2022-08-03T19:57:43.670Z,97378.69
2022-08-03T20:00:13.901Z,97378.53
2022-08-03T20:02:41.331Z,97381.03
2022-08-03T20:05:14.778Z,97382.63
2022-08-03T20:07:47.450Z,97380.22
2022-08-03T20:10:15.381Z,97383.38
2022-08-03T20:12:43.943Z,97389.31
2022-08-03T20:15:10.867Z,97391.53
2022-08-03T20:17:56.617Z,97387.00
2022-08-03T20:20:26.964Z,97394.94
2022-08-03T20:25:57.024Z,97390.06
2022-08-03T20:28:32.015Z,97396.78
2022-08-03T20:30:59.826Z,97391.13
2022-08-03T20:33:27.841Z,97393.13
2022-08-03T20:36:13.518Z,97390.28
2022-08-03T20:38:43.700Z,97388.31
2022-08-03T20:41:13.872Z,97391.09
2022-08-03T20:43:42.024Z,97392.53
2022-08-03T20:46:29.544Z,97386.53
2022-08-03T20:48:57.309Z,97390.53
2022-08-03T20:51:52.395Z,97387.69
2022-08-03T20:54:22.713Z,97391.69
2022-08-03T20:56:57.267Z,97394.47
2022-08-03T20:59:26.726Z,97393.19
2022-08-03T21:01:53.332Z,97391.91
2022-08-03T21:04:21.924Z,97397.56
2022-08-03T21:06:54.213Z,97387.84
2022-08-03T21:09:25.196Z,97393.06
2022-08-03T21:12:07.890Z,97386.59
2022-08-03T21:13:08.292Z,97392.44
2022-08-03T21:14:43.109Z,97388.59
2022-08-03T21:17:19.440Z,97385.03
2022-08-03T21:19:57.330Z,97392.63
2022-08-03T21:22:25.790Z,97394.25
2022-08-03T21:24:55.874Z,97395.03
2022-08-03T21:27:23.833Z,97393.78
2022-08-03T21:29:53.002Z,97393.38
2022-08-03T21:32:32.523Z,97400.56
2022-08-03T21:35:00.408Z,97394.84
2022-08-03T21:37:28.347Z,97398.88
2022-08-03T21:39:56.478Z,97395.97
2022-08-03T21:42:23.940Z,97400.34
2022-08-03T21:44:52.459Z,97392.38
2022-08-03T21:47:21.033Z,97395.44
2022-08-03T21:50:08.790Z,97396.63
2022-08-03T21:52:41.172Z,97400.13
2022-08-03T21:55:08.701Z,97390.56
2022-08-03T21:57:51.575Z,97401.81
2022-08-03T22:00:22.285Z,97404.53
2022-08-03T22:02:55.445Z,97407.25
2022-08-03T22:05:42.412Z,97407.16
2022-08-03T22:08:11.078Z,97398.53
2022-08-03T22:10:38.071Z,97403.34
2022-08-03T22:13:04.786Z,97403.72
2022-08-03T22:15:33.082Z,97392.47
2022-08-03T22:17:59.907Z,97396.47
2022-08-03T22:20:26.437Z,97394.78
2022-08-03T22:22:55.729Z,97389.91
2022-08-03T22:25:27.677Z,97397.41
2022-08-03T22:27:54.908Z,97391.28
2022-08-03T22:30:21.661Z,97399.56
2022-08-03T22:32:53.103Z,97403.13
2022-08-03T22:35:21.553Z,97402.81
2022-08-03T22:37:49.344Z,97404.59
2022-08-03T22:40:16.749Z,97402.97
2022-08-03T22:42:45.024Z,97396.03
2022-08-03T22:45:12.315Z,97396.78
2022-08-03T22:48:01.015Z,97396.56
2022-08-03T22:50:32.266Z,97406.84
2022-08-03T22:53:01.072Z,97398.84
2022-08-03T22:55:27.793Z,97401.66
2022-08-03T22:57:56.069Z,97400.56
2022-08-03T23:00:23.447Z,97398.94
2022-08-03T23:02:51.969Z,97398.56
2022-08-03T23:06:00.575Z,97409.06
2022-08-03T23:08:12.153Z,97403.00
2022-08-03T23:10:42.595Z,97406.56
2022-08-03T23:13:14.447Z,97411.28
2022-08-03T23:15:41.360Z,97418.44
2022-08-03T23:18:08.841Z,97416.31
2022-08-03T23:20:37.065Z,97407.91
2022-08-03T23:23:03.842Z,97416.31
2022-08-03T23:25:31.737Z,97415.41
2022-08-03T23:28:05.186Z,97418.97
2022-08-03T23:30:34.328Z,97420.44
2022-08-03T23:33:02.160Z,97422.78
2022-08-03T23:35:29.052Z,97425.16
2022-08-03T23:38:22.914Z,97424.25
2022-08-03T23:40:51.548Z,97417.75
2022-08-03T23:43:51.098Z,97421.66
2022-08-03T23:46:08.196Z,97420.84
2022-08-03T23:48:34.706Z,97426.38
2022-08-03T23:51:08.775Z,97424.31
2022-08-03T23:53:44.029Z,97421.06
2022-08-03T23:56:19.214Z,97412.97
2022-08-03T23:59:02.643Z,97417.94
